Time;durP1;ratioP1;P1;durP2;ratioP2;P2;SDS_P1;SDS_P2;PMS_P1;PMS_P2;Temp;Humidity;BMP_temperature;BMP_pressure;BME280_temperature;BME280_humidity;BME280_pressure;Samples;Min_cycle;Max_cycle;Signal;HPM_P1;HPM_P2
2022/09/01 00:00:27;;;;;;;343.90;181.93;;;;;;;;;;5008692;28;20181;-48
2022/09/01 00:02:54;;;;;;;321.17;171.77;;;16.20;55.60;;;;;;5009254;28;20712;-48
2022/09/01 00:05:20;;;;;;;327.33;178.98;;;16.20;1.00;;;;;;5008655;28;20319;-48
2022/09/01 00:07:47;;;;;;;335.20;183.23;;;;;;;;;;5008802;28;20232;-48
2022/09/01 00:10:13;;;;;;;333.00;184.55;;;16.10;1.00;;;;;;5008780;28;20709;-48
2022/09/01 00:12:38;;;;;;;321.42;175.73;;;;;;;;;;5008574;28;20295;-48
2022/09/01 00:15:06;;;;;;;328.40;176.77;;;16.40;1.00;;;;;;5008682;28;20197;-47
2022/09/01 00:17:32;;;;;;;336.38;176.00;;;16.50;1.00;;;;;;5008412;28;20221;-48
2022/09/01 00:19:58;;;;;;;350.23;183.40;;;;;;;;;;5008446;28;20219;-48
2022/09/01 00:22:24;;;;;;;381.60;201.23;;;;;;;;;;5007445;28;20229;-48
2022/09/01 00:24:50;;;;;;;356.83;188.03;;;;;;;;;;5007592;28;20213;-47
2022/09/01 00:27:16;;;;;;;377.10;195.70;;;16.50;1.00;;;;;;5008816;28;20563;-47
2022/09/01 00:29:42;;;;;;;370.37;188.33;;;16.20;1.00;;;;;;5008084;28;20308;-48
2022/09/01 00:32:07;;;;;;;359.60;180.43;;;16.20;1.00;;;;;;5008377;28;20235;-47
2022/09/01 00:34:33;;;;;;;367.27;188.17;;;;;;;;;;5008229;28;20282;-47
2022/09/01 00:36:59;;;;;;;364.13;184.53;;;;;;;;;;5008787;28;20271;-48
2022/09/01 00:39:25;;;;;;;359.00;181.50;;;;;;;;;;5008286;28;20255;-48
2022/09/01 00:41:51;;;;;;;371.53;190.10;;;;;;;;;;5007893;28;20417;-47
2022/09/01 00:44:25;;;;;;;378.60;195.47;;;16.20;99.90;;;;;;5007537;28;20748;-48
2022/09/01 00:46:54;;;;;;;392.07;205.50;;;16.00;1.00;;;;;;5005731;28;20267;-48
2022/09/01 00:49:23;;;;;;;350.73;181.53;;;16.20;1.00;;;;;;5007803;28;20217;-47
2022/09/01 00:51:53;;;;;;;372.67;190.33;;;16.00;1.00;;;;;;5007706;28;20215;-47
2022/09/01 00:54:24;;;;;;;359.60;181.30;;;16.00;2.90;;;;;;5006737;28;20193;-48
2022/09/01 00:56:51;;;;;;;372.57;186.80;;;15.90;1.00;;;;;;5005983;28;20232;-48
2022/09/01 00:59:19;;;;;;;370.57;185.93;;;15.90;1.00;;;;;;5007156;28;20287;-47
2022/09/01 01:01:45;;;;;;;360.27;182.57;;;15.90;99.90;;;;;;5007692;28;20272;-47
2022/09/01 01:04:13;;;;;;;362.17;185.73;;;;;;;;;;5007784;28;20593;-47
2022/09/01 01:06:42;;;;;;;374.37;189.23;;;15.70;1.00;;;;;;5006507;28;20207;-48
2022/09/01 01:09:08;;;;;;;353.47;177.77;;;;;;;;;;5007739;28;20756;-48
2022/09/01 01:11:34;;;;;;;340.23;170.00;;;;;;;;;;5006107;28;20232;-47
2022/09/01 01:14:11;;;;;;;372.17;188.07;;;15.70;99.90;;;;;;5007233;28;20348;-47
2022/09/01 01:16:43;;;;;;;372.77;188.53;;;15.10;1.00;;;;;;5007015;28;20227;-48
2022/09/01 01:24:57;;;;;;;365.90;180.50;;;;;;;;;;5006777;28;20291;-48
2022/09/01 01:27:23;;;;;;;388.37;190.67;;;15.40;70.60;;;;;;5006680;28;20268;-48
2022/09/01 01:29:52;;;;;;;375.33;187.10;;;15.60;99.90;;;;;;5004950;28;20319;-47
2022/09/01 01:32:18;;;;;;;360.30;179.87;;;;;;;;;;5005310;28;20669;-47
2022/09/01 01:34:45;;;;;;;380.33;193.20;;;15.50;87.90;;;;;;5005596;28;20751;-48
2022/09/01 01:37:13;;;;;;;374.70;187.33;;;14.90;99.90;;;;;;5006101;28;20344;-48
2022/09/01 01:39:41;;;;;;;362.57;183.27;;;15.30;99.90;;;;;;5006860;28;20203;-48
2022/09/01 01:42:08;;;;;;;378.63;188.60;;;15.30;99.90;;;;;;5006745;28;20217;-48
2022/09/01 01:44:36;;;;;;;375.93;187.07;;;15.20;1.00;;;;;;5004406;28;20263;-48
2022/09/01 01:47:04;;;;;;;365.00;182.20;;;;;;;;;;5005517;28;20318;-48
2022/09/01 01:49:30;;;;;;;367.23;184.73;;;;;;;;;;5005777;28;20216;-47
2022/09/01 01:51:56;;;;;;;368.77;186.73;;;15.00;1.00;;;;;;5004995;28;20201;-47
2022/09/01 01:54:23;;;;;;;368.93;182.80;;;15.20;1.00;;;;;;5005280;28;20227;-48
2022/09/01 01:56:49;;;;;;;371.67;182.40;;;15.30;1.00;;;;;;5005678;28;20217;-48
2022/09/01 01:59:15;;;;;;;387.60;190.27;;;15.20;1.00;;;;;;5004897;28;20568;-48
2022/09/01 02:01:42;;;;;;;378.17;182.47;;;14.90;1.00;;;;;;5004533;28;20240;-48
2022/09/01 02:04:10;;;;;;;354.63;177.47;;;14.90;1.00;;;;;;5006219;28;20375;-48
2022/09/01 02:06:39;;;;;;;361.30;178.30;;;14.90;1.00;;;;;;4986934;28;20599;-48
2022/09/01 02:09:05;;;;;;;357.23;172.53;;;;;;;;;;4987246;28;20340;-47
2022/09/01 02:11:32;;;;;;;364.87;176.37;;;14.80;1.00;;;;;;4986563;28;20780;-48
2022/09/01 02:13:59;;;;;;;360.00;177.50;;;14.80;1.00;;;;;;4986472;28;20287;-47
2022/09/01 02:16:28;;;;;;;360.27;177.63;;;14.90;1.00;;;;;;4988241;28;20216;-47
2022/09/01 02:18:54;;;;;;;372.03;180.70;;;14.60;1.00;;;;;;5005131;28;20233;-47
2022/09/01 02:21:22;;;;;;;368.97;177.97;;;14.60;1.00;;;;;;5005151;28;20200;-48
2022/09/01 02:23:58;;;;;;;381.17;187.37;;;14.50;1.00;;;;;;5004430;28;20561;-48
2022/09/01 02:26:26;;;;;;;348.27;165.47;;;14.50;1.00;;;;;;5004617;28;20651;-48
2022/09/01 02:28:52;;;;;;;360.37;174.10;;;;;;;;;;5006040;28;20223;-47
2022/09/01 02:31:19;;;;;;;370.10;176.03;;;;;;;;;;5005933;28;20213;-47
2022/09/01 02:33:45;;;;;;;346.87;169.23;;;;;;;;;;5006013;28;20577;-47
2022/09/01 02:36:15;;;;;;;346.23;170.77;;;16.10;1.00;;;;;;5006614;28;20177;-48
2022/09/01 02:38:43;;;;;;;344.50;167.20;;;14.40;1.00;;;;;;5006110;28;20627;-47
2022/09/01 02:41:10;;;;;;;367.27;179.87;;;14.30;1.00;;;;;;5004269;28;20236;-47
2022/09/01 02:43:37;;;;;;;359.80;172.47;;;14.40;1.00;;;;;;5005958;28;20239;-47
2022/09/01 02:46:05;;;;;;;355.17;173.43;;;;;;;;;;5005992;28;20212;-47
2022/09/01 02:48:36;;;;;;;365.43;174.40;;;14.20;1.00;;;;;;5006577;28;20173;-47
2022/09/01 02:51:06;;;;;;;360.07;174.20;;;14.30;1.00;;;;;;5006212;28;20196;-47
2022/09/01 02:53:33;;;;;;;368.87;178.40;;;14.20;1.00;;;;;;5005751;28;20217;-47
2022/09/01 02:55:59;;;;;;;364.30;179.60;;;;;;;;;;5005579;28;20217;-47
2022/09/01 02:58:26;;;;;;;362.47;178.93;;;14.30;1.00;;;;;;5005780;28;20227;-47
2022/09/01 03:00:53;;;;;;;347.50;174.70;;;14.10;1.00;;;;;;5005428;28;20296;-47
2022/09/01 03:03:20;;;;;;;358.13;173.13;;;;;;;;;;5006241;28;20208;-47
2022/09/01 03:05:46;;;;;;;367.73;175.40;;;14.20;21.90;;;;;;5005532;28;20282;-47
2022/09/01 03:08:14;;;;;;;377.13;184.70;;;;;;;;;;5005068;28;20220;-47
2022/09/01 03:10:42;;;;;;;363.73;173.00;;;14.00;1.00;;;;;;5004524;28;20300;-47
2022/09/01 03:13:15;;;;;;;359.40;173.43;;;14.00;1.50;;;;;;5002522;28;20260;-47
2022/09/01 03:15:42;;;;;;;388.60;194.23;;;13.90;7.00;;;;;;4986110;28;20173;-47
2022/09/01 03:18:09;;;;;;;360.50;185.20;;;13.80;18.60;;;;;;4984696;28;20491;-47
2022/09/01 03:20:38;;;;;;;339.17;169.47;;;13.70;28.20;;;;;;4985326;28;20526;-47
2022/09/01 03:23:07;;;;;;;358.70;174.03;;;13.70;43.70;;;;;;4999048;28;20244;-47
2022/09/01 03:25:35;;;;;;;350.10;179.60;;;13.60;45.40;;;;;;5004074;28;20221;-47
2022/09/01 03:28:02;;;;;;;398.20;202.60;;;;;;;;;;5005559;28;20217;-47
2022/09/01 03:30:32;;;;;;;403.30;194.23;;;13.50;71.40;;;;;;5005308;28;20268;-47
2022/09/01 03:33:00;;;;;;;377.70;185.13;;;13.40;82.70;;;;;;5005957;28;20205;-47
2022/09/01 03:35:27;;;;;;;355.80;174.67;;;13.60;87.10;;;;;;5007733;28;20324;-47
2022/09/01 03:37:57;;;;;;;368.53;185.70;;;13.40;93.10;;;;;;5009117;28;20217;-47
2022/09/01 03:40:28;;;;;;;374.03;184.77;;;13.30;96.60;;;;;;5008497;28;20210;-47
2022/09/01 03:42:54;;;;;;;368.67;180.13;;;;;;;;;;5007764;28;20232;-47
2022/09/01 03:45:21;;;;;;;429.60;213.87;;;13.20;99.90;;;;;;5007246;28;20262;-47
2022/09/01 03:47:47;;;;;;;361.40;184.53;;;13.20;99.90;;;;;;5006936;28;20312;-47
2022/09/01 03:50:20;;;;;;;405.90;200.23;;;13.30;95.70;;;;;;5007026;28;20308;-46
2022/09/01 03:52:48;;;;;;;377.43;193.63;;;13.30;99.90;;;;;;5008067;28;20303;-47
2022/09/01 03:55:17;;;;;;;337.63;172.27;;;;;;;;;;5007656;28;20216;-46
2022/09/01 03:57:42;;;;;;;358.47;179.93;;;13.20;99.90;;;;;;5009510;28;20234;-47
2022/09/01 04:00:19;;;;;;;357.90;182.70;;;13.20;99.90;;;;;;5008848;28;20205;-46
2022/09/01 04:02:46;;;;;;;354.53;176.37;;;13.30;99.90;;;;;;5008638;28;20251;-46
2022/09/01 04:05:12;;;;;;;352.83;175.47;;;;;;;;;;5008506;28;20347;-47
2022/09/01 04:07:37;;;;;;;359.73;180.27;;;13.80;99.90;;;;;;5008576;28;20220;-46
2022/09/01 04:10:04;;;;;;;346.83;172.03;;;13.00;99.90;;;;;;5008378;28;20208;-46
2022/09/01 04:12:30;;;;;;;353.07;179.40;;;;;;;;;;5008152;28;20215;-47
2022/09/01 04:14:56;;;;;;;356.13;180.07;;;;;;;;;;5008184;28;20224;-46
2022/09/01 04:20:11;;;;;;;339.13;169.77;;;;;;;;;;4986259;28;20236;-46
2022/09/01 04:22:37;;;;;;;352.00;174.67;;;;;;;;;;4988856;28;20229;-46
2022/09/01 04:25:05;;;;;;;361.63;178.33;;;13.30;99.90;;;;;;4988533;28;20222;-46
2022/09/01 04:27:31;;;;;;;352.60;171.10;;;13.00;99.90;;;;;;4995249;28;20204;-47
2022/09/01 04:29:57;;;;;;;355.23;173.07;;;;;;;;;;5007951;28;20637;-46
2022/09/01 04:32:23;;;;;;;324.33;160.23;;;;;;;;;;5007291;28;20314;-46
2022/09/01 04:34:49;;;;;;;377.13;186.37;;;13.20;99.90;;;;;;5006906;28;20700;-47
2022/09/01 04:37:17;;;;;;;345.53;167.13;;;12.80;99.90;;;;;;5008363;28;20204;-46
2022/09/01 04:39:52;;;;;;;383.30;183.03;;;12.80;99.90;;;;;;5007888;28;20200;-46
2022/09/01 04:42:19;;;;;;;363.07;167.13;;;;;;;;;;5023297;23;20368;-72
2022/09/01 04:44:45;;;;;;;355.27;164.40;;;12.90;99.90;;;;;;4994584;28;20290;-73
2022/09/01 04:47:28;;;;;;;311.47;142.20;;;13.40;99.90;;;;;;5000085;28;20240;-73
2022/09/01 04:49:58;;;;;;;369.87;163.47;;;;;;;;;;5003423;28;20251;-73
2022/09/01 04:52:27;;;;;;;378.03;168.30;;;12.70;99.90;;;;;;4998197;28;20795;-73
2022/09/01 04:54:53;;;;;;;390.17;173.00;;;12.70;99.90;;;;;;5000687;28;20212;-73
2022/09/01 04:57:20;;;;;;;332.07;147.77;;;12.70;99.90;;;;;;4997785;28;20195;-73
2022/09/01 04:59:46;;;;;;;328.53;146.83;;;12.70;99.90;;;;;;4993043;28;20333;-72
2022/09/01 05:02:12;;;;;;;322.90;143.90;;;;;;;;;;4997068;28;20391;-72
2022/09/01 05:04:40;;;;;;;363.93;164.80;;;;;;;;;;4997351;28;20224;-73
2022/09/01 05:07:07;;;;;;;362.50;163.50;;;;;;;;;;4998745;28;20208;-74
2022/09/01 05:09:36;;;;;;;353.77;154.83;;;12.50;99.90;;;;;;4999710;28;20635;-73
2022/09/01 05:12:15;;;;;;;329.70;145.63;;;12.60;99.90;;;;;;4991403;28;20213;-73
2022/09/01 05:14:43;;;;;;;435.60;195.57;;;12.60;99.90;;;;;;4994563;28;20271;-71
2022/09/01 05:17:11;;;;;;;384.87;171.80;;;12.50;99.90;;;;;;4991997;28;20217;-71
2022/09/01 05:19:39;;;;;;;373.47;167.33;;;11.20;99.90;;;;;;4994157;28;20645;-71
2022/09/01 05:22:07;;;;;;;375.33;164.57;;;12.50;99.90;;;;;;4995193;28;20698;-72
2022/09/01 05:24:34;;;;;;;373.87;166.60;;;12.90;99.90;;;;;;4999040;28;20757;-71
2022/09/01 05:27:00;;;;;;;397.57;177.97;;;12.80;99.90;;;;;;4989670;28;20217;-71
2022/09/01 05:29:26;;;;;;;330.90;147.87;;;12.80;99.90;;;;;;4995138;28;20299;-72
2022/09/01 05:31:54;;;;;;;341.00;150.10;;;13.00;99.90;;;;;;4997582;28;20590;-72
2022/09/01 05:34:25;;;;;;;361.63;159.90;;;;;;;;;;4997389;28;20215;-72
2022/09/01 05:36:51;;;;;;;362.33;160.90;;;;;;;;;;4993236;28;20221;-71
2022/09/01 05:39:17;;;;;;;380.13;167.50;;;;;;;;;;4996151;28;20185;-73
2022/09/01 05:41:44;;;;;;;357.47;160.47;;;;;;;;;;4990793;28;20219;-71
2022/09/01 05:44:12;;;;;;;381.93;171.70;;;13.10;99.90;;;;;;4990717;28;20248;-72
2022/09/01 05:46:39;;;;;;;355.73;157.77;;;;;;;;;;4995561;28;20212;-72
2022/09/01 05:49:06;;;;;;;337.83;151.63;;;13.30;99.90;;;;;;4997376;28;20217;-71
2022/09/01 05:51:36;;;;;;;339.23;153.07;;;;;;;;;;4995069;28;20204;-72
2022/09/01 05:54:03;;;;;;;368.50;166.43;;;13.40;99.90;;;;;;4990608;28;20187;-73
2022/09/01 05:56:30;;;;;;;334.53;156.57;;;13.40;99.90;;;;;;4998075;28;20631;-72
2022/09/01 05:58:56;;;;;;;385.83;171.80;;;;;;;;;;4993357;28;20263;-71
2022/09/01 06:01:27;;;;;;;356.40;161.33;;;13.60;99.90;;;;;;4985901;28;20254;-72
2022/09/01 06:03:58;;;;;;;381.87;171.67;;;13.60;99.90;;;;;;4991324;28;20224;-71
2022/09/01 06:06:26;;;;;;;347.80;154.77;;;13.70;99.90;;;;;;4993303;28;20177;-71
2022/09/01 06:08:57;;;;;;;350.73;161.63;;;13.70;97.40;;;;;;4997298;28;20708;-72
2022/09/01 06:11:25;;;;;;;438.93;199.77;;;13.70;92.70;;;;;;4987177;28;20251;-74
2022/09/01 06:13:51;;;;;;;405.80;185.30;;;;;;;;;;4987600;28;20228;-71
2022/09/01 06:16:18;;;;;;;413.43;189.97;;;;;;;;;;4972667;28;20216;-69
2022/09/01 06:18:45;;;;;;;368.57;168.80;;;;;;;;;;4993185;28;20258;-73
2022/09/01 06:21:15;;;;;;;709.73;337.10;;;13.60;94.20;;;;;;4982339;28;20372;-68
2022/09/01 06:23:42;;;;;;;369.50;169.30;;;13.60;99.90;;;;;;4991385;28;20213;-69
2022/09/01 06:26:25;;;;;;;362.73;167.17;;;13.70;88.70;;;;;;4989025;28;20204;-71
2022/09/01 06:28:53;;;;;;;380.87;170.43;;;;;;;;;;4986348;28;20223;-70
2022/09/01 06:31:22;;;;;;;341.77;158.60;;;;;;;;;;4987637;28;20241;-70
2022/09/01 06:33:50;;;;;;;391.17;180.80;;;;;;;;;;4991815;28;20283;-70
2022/09/01 06:36:16;;;;;;;384.60;177.50;;;;;;;;;;4984128;28;20193;-68
2022/09/01 06:38:42;;;;;;;347.50;160.03;;;;;;;;;;4989698;28;20297;-70
2022/09/01 06:41:11;;;;;;;354.17;161.77;;;;;;;;;;4995220;28;20238;-67
2022/09/01 06:43:39;;;;;;;351.80;158.47;;;;;;;;;;4990615;28;20209;-67
2022/09/01 06:46:05;;;;;;;365.73;168.83;;;14.00;87.90;;;;;;4987785;28;20263;-68
2022/09/01 06:48:31;;;;;;;371.27;168.80;;;;;;;;;;4989282;28;20193;-66
2022/09/01 06:51:02;;;;;;;398.17;181.73;;;14.10;69.50;;;;;;4989418;28;20392;-67
2022/09/01 06:53:29;;;;;;;393.07;181.37;;;11.40;44.60;;;;;;4988951;28;20241;-67
2022/09/01 06:55:55;;;;;;;365.33;161.13;;;;;;;;;;4987282;28;20717;-68
2022/09/01 06:58:21;;;;;;;466.20;216.53;;;;;;;;;;4981276;28;20216;-67
2022/09/01 07:00:48;;;;;;;482.17;224.43;;;;;;;;;;4986290;28;20292;-68
2022/09/01 07:03:14;;;;;;;461.70;211.90;;;14.30;28.20;;;;;;4993593;28;20209;-67
2022/09/01 07:05:50;;;;;;;503.70;230.10;;;14.30;19.10;;;;;;4988613;28;20940;-67
2022/09/01 07:08:20;;;;;;;362.07;167.63;;;;;;;;;;4983250;28;20256;-66
2022/09/01 07:10:50;;;;;;;529.80;244.43;;;14.40;53.90;;;;;;4985163;28;20746;-67
2022/09/01 07:13:24;;;;;;;374.60;170.17;;;14.40;28.40;;;;;;4990809;28;20856;-67
2022/09/01 07:15:51;;;;;;;410.33;184.33;;;14.50;17.60;;;;;;4992085;28;20236;-67
2022/09/01 07:18:20;;;;;;;391.23;182.03;;;14.70;28.60;;;;;;4988081;28;20174;-71
2022/09/01 07:20:47;;;;;;;334.20;155.47;;;;;;;;;;5004965;28;20789;-66
2022/09/01 07:23:16;;;;;;;339.90;153.30;;;14.80;17.10;;;;;;5000604;28;20224;-66
2022/09/01 07:25:44;;;;;;;391.97;182.03;;;14.80;1.00;;;;;;4994953;28;20351;-67
2022/09/01 07:28:12;;;;;;;361.93;163.77;;;14.90;1.00;;;;;;5014298;28;20212;-66
2022/09/01 07:30:50;;;;;;;377.37;168.53;;;14.80;1.00;;;;;;4993060;28;20968;-66
2022/09/01 07:33:21;;;;;;;393.17;184.27;;;15.00;1.00;;;;;;4989991;28;20236;-65
2022/09/01 07:35:47;;;;;;;366.17;164.30;;;;;;;;;;4995573;28;20230;-66
2022/09/01 07:38:13;;;;;;;376.40;173.33;;;;;;;;;;4994058;28;20304;-66
2022/09/01 07:40:40;;;;;;;550.83;258.00;;;15.20;1.00;;;;;;4995082;28;20852;-66
2022/09/01 07:43:17;;;;;;;380.47;171.13;;;15.20;1.00;;;;;;4994330;28;20228;-66
2022/09/01 07:45:46;;;;;;;412.43;192.60;;;15.30;1.00;;;;;;4982118;28;20185;-66
2022/09/01 07:48:13;;;;;;;367.93;172.13;;;15.40;1.00;;;;;;4995864;28;20186;-66
2022/09/01 07:50:46;;;;;;;407.63;185.30;;;;;;;;;;4989686;28;20282;-66
2022/09/01 07:53:21;;;;;;;357.33;170.43;;;15.40;1.00;;;;;;4996193;28;20249;-60
2022/09/01 07:55:50;;;;;;;439.90;210.77;;;15.40;1.00;;;;;;4994247;28;20220;-60
2022/09/01 07:58:17;;;;;;;408.80;194.70;;;15.60;1.00;;;;;;4989375;28;21167;-60
2022/09/01 08:03:48;;;;;;;346.75;175.75;;;15.90;1.00;;;;;;5066935;27;21147;-50
2022/09/01 08:06:18;;;;;;;356.65;177.88;;;15.80;1.00;;;;;;5063455;28;20175;-50
2022/09/01 08:08:44;;;;;;;359.48;179.25;;;16.00;1.00;;;;;;5061712;28;20225;-50
2022/09/01 08:11:15;;;;;;;298.75;158.05;;;16.10;1.00;;;;;;5056960;28;20206;-51
2022/09/01 08:13:41;;;;;;;323.48;169.65;;;;;;;;;;5061128;28;20241;-51
2022/09/01 08:16:08;;;;;;;289.02;155.23;;;;;;;;;;5067848;28;20213;-51
2022/09/01 08:18:34;;;;;;;283.98;150.98;;;;;;;;;;5068676;28;20192;-51
2022/09/01 08:21:00;;;;;;;373.08;187.30;;;;;;;;;;5052810;28;22834;-51
2022/09/01 08:23:26;;;;;;;323.35;169.27;;;;;;;;;;5064468;28;20237;-51
2022/09/01 08:25:52;;;;;;;283.08;156.43;;;16.60;1.00;;;;;;5067878;28;20210;-51
2022/09/01 08:28:19;;;;;;;290.65;160.60;;;16.80;1.00;;;;;;5067847;28;20218;-51
2022/09/01 08:30:47;;;;;;;294.77;160.73;;;16.80;1.00;;;;;;5071044;28;20189;-51
2022/09/01 08:33:13;;;;;;;312.25;167.63;;;;;;;;;;5065498;28;20176;-51
2022/09/01 08:35:40;;;;;;;350.85;184.55;;;17.00;99.90;;;;;;5070864;28;20226;-50
2022/09/01 08:38:06;;;;;;;279.98;152.27;;;17.10;99.90;;;;;;5062831;28;20433;-51
2022/09/01 08:40:32;;;;;;;308.83;170.43;;;;;;;;;;5070856;28;20221;-51
2022/09/01 08:43:24;;;;;;;304.80;165.82;;;17.20;1.00;;;;;;5063646;28;20227;-51
2022/09/01 08:45:56;;;;;;;297.77;161.32;;;17.20;99.90;;;;;;5068427;28;20719;-51
2022/09/01 08:48:27;;;;;;;316.55;167.35;;;17.30;1.00;;;;;;5062749;28;20258;-51
2022/09/01 08:51:01;;;;;;;280.48;155.25;;;17.40;1.00;;;;;;5071095;28;20210;-51
2022/09/01 08:53:42;;;;;;;272.75;155.35;;;17.50;1.00;;;;;;5066507;28;20221;-51
2022/09/01 08:56:10;;;;;;;241.77;148.60;;;17.50;1.00;;;;;;5064887;28;20973;-51
2022/09/01 08:58:35;;;;;;;247.73;149.05;;;;;;;;;;5063334;28;20229;-51
2022/09/01 09:01:14;;;;;;;275.42;158.07;;;17.80;81.70;;;;;;5067900;28;20210;-51
2022/09/01 09:04:01;;;;;;;262.27;159.98;;;17.90;1.00;;;;;;5065772;28;20325;-51
2022/09/01 09:06:34;;;;;;;310.17;167.43;;;17.90;1.00;;;;;;5051319;28;20234;-51
2022/09/01 09:09:02;;;;;;;292.38;163.25;;;18.00;99.90;;;;;;5043413;28;20209;-52
2022/09/01 09:11:50;;;;;;;313.23;172.30;;;18.00;1.00;;;;;;5061258;28;20206;-51
2022/09/01 09:14:25;;;;;;;271.65;156.48;;;18.10;1.00;;;;;;5049038;28;20284;-51
2022/09/01 09:16:53;;;;;;;286.30;163.02;;;18.20;99.90;;;;;;5046002;28;20284;-51
2022/09/01 09:19:28;;;;;;;221.52;140.25;;;18.30;1.00;;;;;;5054702;28;20298;-51
2022/09/01 09:21:55;;;;;;;329.83;176.90;;;18.30;99.90;;;;;;5050853;28;20688;-52
2022/09/01 09:24:46;;;;;;;271.70;158.30;;;18.40;1.00;;;;;;5048902;28;20278;-51
2022/09/01 09:27:27;;;;;;;246.13;150.30;;;18.30;1.00;;;;;;5039748;28;20203;-52
2022/09/01 09:29:53;;;;;;;316.15;173.77;;;;;;;;;;5044447;28;20219;-51
2022/09/01 09:32:20;;;;;;;242.43;147.95;;;18.70;1.00;;;;;;5055335;28;20226;-51
2022/09/01 09:34:46;;;;;;;248.40;159.18;;;18.80;1.00;;;;;;5054675;28;20698;-51
2022/09/01 09:37:29;;;;;;;264.52;164.63;;;18.90;99.90;;;;;;5051309;28;20259;-51
2022/09/01 09:40:10;;;;;;;262.42;170.27;;;19.40;1.00;;;;;;5052691;28;20221;-52
2022/09/01 09:42:55;;;;;;;237.88;154.63;;;19.20;99.90;;;;;;5054455;28;20191;-52
2022/09/01 09:45:24;;;;;;;260.27;164.32;;;19.20;1.00;;;;;;5055244;28;20553;-51
2022/09/01 09:47:52;;;;;;;386.23;213.48;;;19.30;1.00;;;;;;5047842;28;20982;-51
2022/09/01 09:50:18;;;;;;;264.60;161.30;;;;;;;;;;5053087;28;20203;-51
2022/09/01 09:52:45;;;;;;;314.33;180.35;;;19.30;83.20;;;;;;5055160;28;20726;-52
2022/09/01 09:55:29;;;;;;;283.23;175.48;;;19.30;1.00;;;;;;5055645;28;20695;-51
2022/09/01 09:57:59;;;;;;;286.67;174.65;;;19.10;1.00;;;;;;5053734;28;20618;-51
2022/09/01 10:00:33;;;;;;;279.48;165.40;;;19.90;1.00;;;;;;5053118;28;20183;-51
2022/09/01 10:03:02;;;;;;;355.98;209.32;;;19.80;1.00;;;;;;5025813;28;20619;-51
2022/09/01 10:05:47;;;;;;;291.20;185.30;;;19.90;1.00;;;;;;5045909;28;20229;-51
2022/09/01 10:08:36;;;;;;;260.48;167.35;;;20.00;99.90;;;;;;5054805;28;20272;-52
2022/09/01 10:11:03;;;;;;;471.80;257.55;;;20.20;99.90;;;;;;5050537;28;20214;-51
2022/09/01 10:13:31;;;;;;;239.13;154.02;;;20.20;99.90;;;;;;5039148;28;20234;-52
2022/09/01 10:16:00;;;;;;;273.30;170.80;;;20.30;1.00;;;;;;5053701;28;20242;-54
2022/09/01 10:18:33;;;;;;;287.17;179.52;;;20.30;99.90;;;;;;5048088;28;20562;-51
2022/09/01 10:21:01;;;;;;;320.27;191.00;;;20.60;20.80;;;;;;5054626;28;20298;-51
2022/09/01 10:23:29;;;;;;;305.17;185.23;;;20.40;99.90;;;;;;5048829;28;20249;-51
2022/09/01 10:26:01;;;;;;;322.70;193.15;;;20.60;99.90;;;;;;5053667;28;20294;-51
2022/09/01 10:28:30;;;;;;;320.27;192.40;;;20.70;99.90;;;;;;5052625;28;20255;-51
2022/09/01 10:30:58;;;;;;;328.92;192.38;;;20.70;99.90;;;;;;5051491;28;20752;-51
2022/09/01 10:33:23;;;;;;;333.20;201.95;;;20.80;1.00;;;;;;5056680;28;20203;-51
2022/09/01 10:35:53;;;;;;;333.63;200.63;;;20.70;1.00;;;;;;5052868;28;20215;-51
2022/09/01 10:38:25;;;;;;;342.25;204.38;;;20.60;1.00;;;;;;5055869;28;20215;-51
2022/09/01 10:41:08;;;;;;;331.15;197.23;;;20.80;99.90;;;;;;5053601;28;20227;-52
2022/09/01 10:43:40;;;;;;;322.33;194.75;;;20.80;99.90;;;;;;5052258;28;20221;-51
2022/09/01 10:46:25;;;;;;;310.17;193.70;;;20.90;99.90;;;;;;5052733;28;20679;-51
2022/09/01 10:48:56;;;;;;;342.20;209.32;;;21.00;1.00;;;;;;5049934;28;20907;-51
2022/09/01 10:51:22;;;;;;;341.02;209.40;;;;;;;;;;5046915;28;20186;-51
2022/09/01 10:53:49;;;;;;;382.45;214.30;;;21.20;99.90;;;;;;5036908;28;20227;-50
2022/09/01 10:56:20;;;;;;;449.35;248.27;;;21.30;1.00;;;;;;5041232;28;21138;-50
2022/09/01 10:59:16;;;;;;;374.95;221.63;;;21.30;99.90;;;;;;5040685;28;20922;-50
2022/09/01 11:01:42;;;;;;;358.58;220.27;;;;;;;;;;5039382;28;20233;-51
2022/09/01 11:04:20;;;;;;;440.30;242.68;;;21.60;99.90;;;;;;5037541;28;20243;-51
2022/09/01 11:07:02;;;;;;;395.08;223.52;;;21.70;88.20;;;;;;5045564;28;20678;-52
2022/09/01 11:09:32;;;;;;;419.38;233.60;;;21.80;84.50;;;;;;5047152;28;20175;-51
2022/09/01 11:12:01;;;;;;;486.17;263.00;;;21.80;52.30;;;;;;5038796;28;20268;-51
2022/09/01 11:14:28;;;;;;;498.10;285.55;;;;;;;;;;5033394;28;20566;-51
2022/09/01 11:17:12;;;;;;;460.67;241.38;;;22.10;1.50;;;;;;5026353;28;20838;-52
2022/09/01 11:19:54;;;;;;;497.42;255.98;;;22.10;1.00;;;;;;5036561;28;20229;-51
2022/09/01 11:22:42;;;;;;;473.17;248.05;;;22.10;99.90;;;;;;5032994;28;20231;-52
2022/09/01 11:25:43;;;;;;;481.52;255.48;;;22.00;1.00;;;;;;5035606;28;20214;-52
2022/09/01 11:28:15;;;;;;;437.92;237.63;;;21.90;1.00;;;;;;5038326;28;20206;-52
2022/09/01 11:30:51;;;;;;;378.95;222.88;;;21.80;99.90;;;;;;5036542;28;20232;-52
2022/09/01 11:33:43;;;;;;;392.73;225.10;;;22.10;1.00;;;;;;5039306;28;20218;-52
2022/09/01 11:36:23;;;;;;;486.48;257.40;;;22.10;1.00;;;;;;5028322;28;20368;-52
2022/09/01 11:38:57;;;;;;;364.60;213.98;;;22.30;16.50;;;;;;5039543;28;20304;-52
2022/09/01 11:41:45;;;;;;;435.63;254.50;;;22.40;1.00;;;;;;5038786;28;20206;-52
2022/09/01 11:44:20;;;;;;;388.30;222.88;;;22.60;1.00;;;;;;5031165;28;20752;-51
2022/09/01 11:46:46;;;;;;;389.92;230.38;;;;;;;;;;5047019;28;20210;-52
2022/09/01 11:49:35;;;;;;;385.95;231.00;;;22.60;1.00;;;;;;5050902;28;20217;-52
2022/09/01 11:52:02;;;;;;;455.17;266.15;;;23.00;1.00;;;;;;5033490;28;20718;-52
2022/09/01 11:54:37;;;;;;;485.67;275.50;;;23.30;1.00;;;;;;5040154;28;20214;-52
2022/09/01 11:57:27;;;;;;;590.38;296.50;;;23.40;1.00;;;;;;5029216;28;21297;-51
2022/09/01 11:59:54;;;;;;;509.30;281.90;;;23.40;1.00;;;;;;5019025;28;20674;-52
2022/09/01 12:02:28;;;;;;;524.30;282.65;;;23.90;1.00;;;;;;5033075;28;20666;-52
2022/09/01 12:04:55;;;;;;;405.30;239.95;;;23.70;1.00;;;;;;5052606;28;20210;-52
2022/09/01 12:07:40;;;;;;;400.23;237.77;;;24.10;1.00;;;;;;5047613;28;20211;-52
2022/09/01 12:13:08;;;;;;;424.20;244.40;;;24.50;1.00;;;;;;4801450;26;20602;-65
2022/09/01 12:15:41;;;;;;;433.02;253.40;;;24.90;1.00;;;;;;5002345;28;20210;-59
2022/09/01 12:18:17;;;;;;;425.00;258.30;;;24.90;1.00;;;;;;5010266;28;20180;-59
2022/09/01 12:20:44;;;;;;;362.55;228.55;;;25.00;1.00;;;;;;5033020;28;20675;-59
2022/09/01 12:23:31;;;;;;;398.05;245.80;;;25.20;1.00;;;;;;5015974;28;20216;-60
2022/09/01 12:26:02;;;;;;;447.25;272.10;;;25.40;1.00;;;;;;5012150;28;20221;-59
2022/09/01 12:28:30;;;;;;;414.77;257.38;;;25.60;1.00;;;;;;5006690;28;20216;-61
2022/09/01 12:30:58;;;;;;;366.35;241.57;;;25.50;1.00;;;;;;5010857;28;20215;-60
2022/09/01 12:33:24;;;;;;;404.48;252.30;;;25.60;1.00;;;;;;5008272;28;20216;-60
2022/09/01 12:35:50;;;;;;;428.35;265.65;;;;;;;;;;5004413;28;20212;-60
2022/09/01 12:38:22;;;;;;;410.23;255.77;;;26.20;1.00;;;;;;5012010;28;20231;-59
2022/09/01 12:40:50;;;;;;;421.90;264.33;;;25.90;1.00;;;;;;5015691;28;20230;-59
2022/09/01 12:43:30;;;;;;;429.70;267.80;;;25.50;1.00;;;;;;5012799;28;20343;-59
2022/09/01 12:45:58;;;;;;;388.52;243.18;;;;;;;;;;5016077;28;20237;-59
2022/09/01 12:48:36;;;;;;;424.65;262.88;;;25.60;1.00;;;;;;5009655;28;20173;-59
2022/09/01 12:51:23;;;;;;;479.67;290.13;;;25.40;1.00;;;;;;5015171;28;20205;-59
2022/09/01 12:53:55;;;;;;;395.27;246.48;;;25.20;1.00;;;;;;5012795;28;20237;-59
2022/09/01 12:56:29;;;;;;;413.83;258.25;;;25.40;1.00;;;;;;5019495;28;20208;-59
2022/09/01 12:59:32;;;;;;;449.67;271.25;;;25.10;1.00;;;;;;5015666;28;20200;-65
2022/09/01 13:02:48;;;;;;;384.98;243.23;;;25.30;1.00;;;;;;5006171;28;20243;-66
2022/09/01 13:05:20;;;;;;;411.48;265.15;;;24.70;1.00;;;;;;5005649;28;20216;-65
2022/09/01 13:07:46;;;;;;;407.70;258.75;;;;;;;;;;5015687;28;20241;-66